Time;durP1;ratioP1;P1;durP2;ratioP2;P2;SDS_P1;SDS_P2;PMS_P1;PMS_P2;Temp;Humidity;BMP_temperature;BMP_pressure;BME280_temperature;BME280_humidity;BME280_pressure;Samples;Min_cycle;Max_cycle;Signal;HPM_P1;HPM_P2
2022/06/28 00:00:59;;;;;;;9.13;8.23;;;15.20;99.90;;;;;;5104480;27;20048;-34
2022/06/28 00:03:26;;;;;;;11.88;8.10;;;15.20;99.90;;;;;;5106449;28;20055;-34
2022/06/28 00:05:53;;;;;;;12.88;9.18;;;15.10;99.90;;;;;;5108986;28;20037;-34
2022/06/28 00:08:19;;;;;;;11.50;7.18;;;15.10;99.90;;;;;;5109054;27;20056;-35
2022/06/28 00:10:46;;;;;;;7.65;6.18;;;15.00;99.90;;;;;;5107555;27;20076;-35
2022/06/28 00:13:13;;;;;;;10.10;7.15;;;15.00;99.90;;;;;;5129559;27;20044;-35
2022/06/28 00:18:25;;;;;;;10.00;8.32;;;15.00;99.90;;;;;;5097511;28;20506;-34
2022/06/28 00:20:52;;;;;;;9.60;6.53;;;14.90;99.90;;;;;;5101304;27;20123;-34
2022/06/28 00:23:19;;;;;;;11.02;6.50;;;14.90;99.90;;;;;;5094505;28;20084;-39
2022/06/28 00:25:46;;;;;;;12.30;8.68;;;14.90;99.90;;;;;;5100748;27;20094;-34
2022/06/28 00:28:12;;;;;;;9.02;7.45;;;14.90;99.90;;;;;;5135366;27;20130;-34
2022/06/28 00:30:41;;;;;;;11.13;6.25;;;14.80;99.90;;;;;;5099308;28;20048;-34
2022/06/28 00:33:07;;;;;;;8.73;6.93;;;14.80;99.90;;;;;;5107405;28;20047;-34
2022/06/28 00:35:34;;;;;;;12.40;8.88;;;14.80;99.90;;;;;;5111402;27;20047;-34
2022/06/28 00:38:01;;;;;;;11.88;8.43;;;14.80;99.90;;;;;;5103835;28;20048;-34
2022/06/28 00:40:28;;;;;;;11.43;8.63;;;14.70;99.90;;;;;;5114853;28;20551;-34
2022/06/28 00:42:58;;;;;;;9.35;7.63;;;14.70;99.90;;;;;;5100452;27;20492;-34
2022/06/28 00:45:27;;;;;;;14.15;9.60;;;14.70;99.90;;;;;;5102334;28;20125;-35
2022/06/28 00:47:55;;;;;;;11.70;9.00;;;14.70;99.90;;;;;;5099167;28;20052;-34
2022/06/28 00:50:22;;;;;;;9.02;7.32;;;14.60;99.90;;;;;;5102436;28;20503;-34
2022/06/28 00:53:02;;;;;;;9.90;7.43;;;14.60;99.90;;;;;;5099860;28;20048;-34
2022/06/28 00:55:29;;;;;;;10.52;7.05;;;14.60;99.90;;;;;;5097426;28;20067;-34
2022/06/28 00:57:56;;;;;;;10.45;8.32;;;14.60;99.90;;;;;;5104082;28;20067;-33
2022/06/28 01:00:23;;;;;;;11.73;8.60;;;14.50;99.90;;;;;;5094143;27;20457;-34
2022/06/28 01:02:49;;;;;;;10.25;7.90;;;14.50;99.90;;;;;;5093910;28;20048;-33
2022/06/28 01:05:18;;;;;;;10.25;6.65;;;14.50;99.90;;;;;;5093144;28;20087;-33
2022/06/28 01:07:45;;;;;;;9.20;7.70;;;14.40;99.90;;;;;;5095785;27;20090;-34
2022/06/28 01:10:11;;;;;;;8.57;7.47;;;14.50;99.90;;;;;;5098788;27;20059;-34
2022/06/28 01:12:38;;;;;;;9.07;7.22;;;14.50;99.90;;;;;;5113049;28;20441;-34
2022/06/28 01:15:06;;;;;;;9.68;7.82;;;14.50;99.90;;;;;;5112224;28;20059;-34
2022/06/28 01:17:33;;;;;;;7.38;5.85;;;14.50;99.90;;;;;;5104855;27;20048;-34
2022/06/28 01:20:00;;;;;;;13.45;7.88;;;14.50;99.90;;;;;;5094693;28;20117;-34
2022/06/28 01:22:28;;;;;;;10.68;8.93;;;14.50;99.90;;;;;;5096246;28;20052;-34
2022/06/28 01:24:57;;;;;;;10.63;7.43;;;14.50;99.90;;;;;;5093352;28;20458;-34
2022/06/28 01:27:23;;;;;;;9.98;8.00;;;14.40;99.90;;;;;;5110937;28;20116;-34
2022/06/28 01:29:50;;;;;;;11.70;9.80;;;14.40;99.90;;;;;;5110995;28;20047;-35
2022/06/28 01:32:17;;;;;;;11.88;9.48;;;14.40;99.90;;;;;;5097095;28;20135;-34
2022/06/28 01:34:44;;;;;;;9.60;7.32;;;14.30;99.90;;;;;;5105986;28;20559;-34
2022/06/28 01:37:11;;;;;;;8.68;6.75;;;14.30;99.90;;;;;;5095180;27;20044;-34
2022/06/28 01:39:38;;;;;;;10.45;7.43;;;14.30;99.90;;;;;;5093320;28;20043;-33
2022/06/28 01:42:07;;;;;;;8.50;6.30;;;14.30;99.90;;;;;;5093187;28;20048;-34
2022/06/28 01:44:34;;;;;;;9.45;7.15;;;14.30;99.90;;;;;;5097656;28;20097;-33
2022/06/28 01:47:00;;;;;;;9.38;7.65;;;14.30;99.90;;;;;;5093402;28;20561;-34
2022/06/28 01:49:30;;;;;;;9.05;6.68;;;14.30;99.90;;;;;;5092817;28;20442;-34
2022/06/28 01:51:57;;;;;;;10.35;9.30;;;14.30;99.90;;;;;;5109130;27;20047;-34
2022/06/28 01:54:25;;;;;;;8.38;7.45;;;14.20;99.90;;;;;;5098064;28;20553;-34
2022/06/28 01:56:52;;;;;;;8.45;7.22;;;14.20;99.90;;;;;;5092352;27;20065;-34
2022/06/28 01:59:20;;;;;;;11.00;7.10;;;14.20;99.90;;;;;;5097498;27;20051;-34
2022/06/28 02:01:47;;;;;;;8.25;7.18;;;14.20;99.90;;;;;;5108922;28;20527;-35
2022/06/28 02:04:20;;;;;;;13.20;8.25;;;14.20;99.90;;;;;;5093668;28;20109;-35
2022/06/28 02:06:47;;;;;;;10.07;6.90;;;14.20;99.90;;;;;;5102528;28;20071;-35
2022/06/28 02:09:14;;;;;;;8.43;6.90;;;14.10;99.90;;;;;;5112245;28;20452;-35
2022/06/28 02:11:41;;;;;;;8.05;7.20;;;14.10;99.90;;;;;;5105638;27;20047;-35
2022/06/28 02:14:08;;;;;;;13.50;10.65;;;14.10;99.90;;;;;;5112700;28;20104;-35
2022/06/28 02:16:37;;;;;;;13.13;8.48;;;14.10;99.90;;;;;;5103963;28;20083;-35
2022/06/28 02:19:04;;;;;;;8.90;8.00;;;14.00;99.90;;;;;;5110083;28;20092;-35
2022/06/28 02:21:35;;;;;;;10.43;7.88;;;14.00;99.90;;;;;;5112245;28;20127;-35
2022/06/28 02:24:02;;;;;;;7.82;6.60;;;14.00;99.90;;;;;;5110370;28;20562;-35
2022/06/28 02:26:29;;;;;;;15.00;10.48;;;14.00;99.90;;;;;;5101102;28;20056;-34
2022/06/28 02:28:56;;;;;;;13.35;9.68;;;13.90;99.90;;;;;;5109166;28;20113;-34
2022/06/28 02:31:22;;;;;;;9.00;7.78;;;13.90;99.90;;;;;;5109397;28;20075;-34
2022/06/28 02:33:51;;;;;;;14.57;10.88;;;13.90;99.90;;;;;;5095884;28;20108;-34
2022/06/28 02:41:46;;;;;;;12.73;9.57;;;13.80;99.90;;;;;;5099130;28;20051;-34
2022/06/28 02:44:15;;;;;;;14.10;9.48;;;13.80;99.90;;;;;;5112666;28;20054;-34
2022/06/28 02:46:42;;;;;;;15.38;10.35;;;13.80;99.90;;;;;;5104193;28;20514;-34
2022/06/28 02:49:10;;;;;;;13.35;10.13;;;13.70;99.90;;;;;;5092226;28;20434;-34
2022/06/28 02:51:37;;;;;;;9.93;7.15;;;13.70;99.90;;;;;;5098640;28;20501;-34
2022/06/28 02:54:04;;;;;;;14.50;11.23;;;13.70;99.90;;;;;;5097278;28;20084;-34
2022/06/28 02:56:31;;;;;;;13.88;8.55;;;13.70;99.90;;;;;;5099630;28;20571;-34
2022/06/28 02:58:58;;;;;;;12.20;8.20;;;13.70;99.90;;;;;;5099865;28;20365;-34
2022/06/28 03:01:25;;;;;;;10.07;7.97;;;13.70;99.90;;;;;;5094060;28;20444;-34
2022/06/28 03:03:51;;;;;;;9.85;7.90;;;13.70;99.90;;;;;;5125508;28;20044;-34
2022/06/28 03:06:19;;;;;;;13.85;9.45;;;13.60;99.90;;;;;;5102109;28;20087;-34
2022/06/28 03:08:46;;;;;;;13.63;10.88;;;13.60;99.90;;;;;;5098134;28;20084;-34
2022/06/28 03:11:13;;;;;;;12.07;8.93;;;13.60;99.90;;;;;;5091475;28;20101;-34
2022/06/28 03:13:40;;;;;;;20.83;11.43;;;13.60;99.90;;;;;;5094313;28;20143;-34
2022/06/28 03:16:07;;;;;;;12.23;8.80;;;13.60;99.90;;;;;;5101806;28;20055;-34
2022/06/28 03:18:33;;;;;;;11.55;8.35;;;13.50;99.90;;;;;;5101562;27;20072;-34
2022/06/28 03:21:00;;;;;;;15.38;10.50;;;13.50;99.90;;;;;;5098014;28;20082;-34
2022/06/28 03:23:28;;;;;;;16.02;10.00;;;13.50;99.90;;;;;;5094757;27;20441;-34
2022/06/28 03:25:55;;;;;;;12.45;9.52;;;13.50;99.90;;;;;;5098298;27;20608;-34
2022/06/28 03:28:22;;;;;;;13.27;9.52;;;13.50;99.90;;;;;;5107363;27;20052;-34
2022/06/28 03:30:49;;;;;;;10.23;9.15;;;13.50;99.90;;;;;;5100878;28;20071;-34
2022/06/28 03:33:15;;;;;;;13.43;9.65;;;13.50;99.90;;;;;;5109337;28;20093;-34
2022/06/28 03:35:42;;;;;;;12.65;8.30;;;13.50;99.90;;;;;;5110119;28;20087;-34
2022/06/28 03:38:09;;;;;;;11.20;8.10;;;13.50;99.90;;;;;;5105156;28;20098;-35
2022/06/28 03:40:37;;;;;;;11.43;9.88;;;13.50;99.90;;;;;;5100455;28;20040;-34
2022/06/28 03:43:05;;;;;;;17.30;9.57;;;13.40;99.90;;;;;;5095320;27;20117;-35
2022/06/28 03:45:32;;;;;;;12.07;9.25;;;13.40;99.90;;;;;;5103073;27;20051;-34
2022/06/28 03:47:59;;;;;;;14.75;9.65;;;13.40;99.90;;;;;;5099082;28;20075;-34
2022/06/28 03:50:25;;;;;;;15.50;8.70;;;13.40;99.90;;;;;;5108272;28;20121;-34
2022/06/28 03:52:52;;;;;;;12.25;8.65;;;13.40;99.90;;;;;;5110078;27;20040;-35
2022/06/28 03:55:19;;;;;;;14.80;8.48;;;13.30;99.90;;;;;;5099754;27;20052;-35
2022/06/28 03:57:47;;;;;;;14.30;7.88;;;13.30;99.90;;;;;;5109821;27;20106;-35
2022/06/28 04:00:15;;;;;;;9.48;6.95;;;13.40;99.90;;;;;;5098097;27;20075;-35
2022/06/28 04:02:41;;;;;;;10.85;8.50;;;13.40;99.90;;;;;;5107918;28;20079;-35
2022/06/28 04:05:08;;;;;;;14.32;8.70;;;13.40;99.90;;;;;;5112007;28;20079;-35
2022/06/28 04:07:36;;;;;;;12.27;7.45;;;13.40;99.90;;;;;;5098413;28;20095;-35
2022/06/28 04:10:03;;;;;;;11.98;7.63;;;13.40;99.90;;;;;;5105493;27;20050;-35
2022/06/28 04:12:30;;;;;;;16.50;7.50;;;13.30;99.90;;;;;;5113982;28;20422;-35
2022/06/28 04:14:58;;;;;;;16.58;9.20;;;13.40;99.90;;;;;;5113810;27;20047;-35
2022/06/28 04:17:25;;;;;;;10.23;6.55;;;13.40;99.90;;;;;;5100659;28;20385;-35
2022/06/28 04:19:52;;;;;;;7.88;5.95;;;13.40;99.90;;;;;;5099796;28;20062;-35
2022/06/28 04:22:18;;;;;;;14.80;8.75;;;13.40;99.90;;;;;;5101935;28;20055;-35
2022/06/28 04:24:45;;;;;;;8.85;6.13;;;13.40;99.90;;;;;;5114007;28;20094;-35
2022/06/28 04:27:12;;;;;;;11.98;6.55;;;13.40;99.90;;;;;;5110874;28;20052;-35
2022/06/28 04:29:39;;;;;;;10.18;6.57;;;13.40;99.90;;;;;;5114965;28;20101;-35
2022/06/28 04:32:08;;;;;;;9.40;6.55;;;13.50;99.90;;;;;;5113678;28;20104;-35
2022/06/28 04:34:35;;;;;;;9.15;6.72;;;13.40;99.90;;;;;;5101225;27;20040;-35
2022/06/28 04:37:02;;;;;;;8.10;6.13;;;13.40;99.90;;;;;;5094496;28;20105;-35
2022/06/28 04:39:28;;;;;;;13.57;7.30;;;13.50;99.90;;;;;;5098311;28;20086;-35
2022/06/28 04:41:55;;;;;;;16.75;8.73;;;13.50;99.90;;;;;;5097554;28;20079;-35
2022/06/28 04:44:22;;;;;;;18.42;8.48;;;13.50;99.90;;;;;;5105462;28;20051;-35
2022/06/28 04:46:49;;;;;;;12.75;8.02;;;13.50;99.90;;;;;;5096182;27;20052;-35
2022/06/28 04:49:17;;;;;;;13.60;8.70;;;13.50;99.90;;;;;;5111962;28;20514;-35
2022/06/28 04:51:44;;;;;;;16.67;8.70;;;13.50;99.90;;;;;;5111826;28;20043;-35
2022/06/28 04:54:11;;;;;;;18.05;9.70;;;13.50;99.90;;;;;;5108749;27;20478;-35
2022/06/28 04:56:40;;;;;;;14.50;8.00;;;13.60;99.90;;;;;;5121991;27;20090;-36
2022/06/28 04:59:07;;;;;;;13.40;7.95;;;13.60;99.90;;;;;;5115424;27;20496;-35
2022/06/28 05:01:34;;;;;;;16.90;9.30;;;13.60;99.90;;;;;;5101957;27;20103;-35
2022/06/28 05:04:00;;;;;;;17.33;8.60;;;13.60;99.90;;;;;;5114217;28;20514;-36
2022/06/28 05:06:29;;;;;;;12.27;7.65;;;13.70;99.90;;;;;;5112253;28;20105;-35
2022/06/28 05:08:56;;;;;;;17.45;8.38;;;13.70;99.90;;;;;;5099266;28;20052;-35
2022/06/28 05:11:22;;;;;;;11.05;8.30;;;13.80;99.90;;;;;;5109778;27;20071;-35
2022/06/28 05:13:49;;;;;;;18.48;8.63;;;13.80;99.90;;;;;;5104048;28;20071;-35
2022/06/28 05:16:16;;;;;;;7.80;5.80;;;13.90;99.90;;;;;;5102291;28;20055;-35
2022/06/28 05:18:43;;;;;;;16.27;9.05;;;14.00;99.90;;;;;;5103274;28;20048;-34
2022/06/28 05:21:10;;;;;;;19.42;8.00;;;14.00;99.90;;;;;;5108602;27;20080;-35
2022/06/28 05:23:38;;;;;;;17.00;8.82;;;14.10;99.90;;;;;;5103631;28;20658;-34
2022/06/28 05:26:05;;;;;;;11.95;7.03;;;14.20;99.90;;;;;;5105595;27;20048;-34
2022/06/28 05:28:32;;;;;;;16.73;8.38;;;14.30;99.90;;;;;;5099393;28;20047;-35
2022/06/28 05:30:58;;;;;;;12.45;8.15;;;14.40;99.90;;;;;;5102555;27;20062;-34
2022/06/28 05:33:25;;;;;;;15.10;8.32;;;14.40;99.90;;;;;;5097276;27;20610;-34
2022/06/28 05:35:52;;;;;;;13.65;8.25;;;14.50;99.90;;;;;;5092624;28;20043;-34
2022/06/28 05:38:19;;;;;;;18.20;7.43;;;14.70;99.90;;;;;;5096942;28;20891;-35
2022/06/28 05:40:47;;;;;;;12.25;8.20;;;14.70;99.90;;;;;;5091559;28;20052;-34
2022/06/28 05:43:14;;;;;;;12.95;7.50;;;14.80;99.90;;;;;;5092365;28;20564;-35
2022/06/28 05:45:41;;;;;;;17.92;8.23;;;14.90;99.90;;;;;;5092176;27;20109;-34
2022/06/28 05:48:08;;;;;;;15.88;7.47;;;15.00;99.90;;;;;;5105513;28;20446;-34
2022/06/28 05:50:34;;;;;;;13.55;7.78;;;15.10;99.90;;;;;;5101154;27;20105;-34
2022/06/28 05:53:01;;;;;;;17.75;6.82;;;15.20;99.90;;;;;;5090870;28;20060;-33
2022/06/28 05:55:28;;;;;;;18.85;7.20;;;15.30;99.90;;;;;;5094287;28;20074;-34
2022/06/28 05:57:57;;;;;;;13.52;7.18;;;15.40;99.90;;;;;;5110606;28;20040;-34
2022/06/28 06:00:23;;;;;;;18.55;6.43;;;15.50;99.90;;;;;;5091128;28;20080;-33
2022/06/28 06:02:50;;;;;;;14.18;6.53;;;15.60;99.90;;;;;;5100030;28;20747;-34
2022/06/28 06:05:17;;;;;;;17.30;6.63;;;15.70;99.90;;;;;;5095245;28;20067;-34
2022/06/28 06:07:44;;;;;;;17.90;7.28;;;15.80;99.90;;;;;;5091205;28;20056;-34
2022/06/28 06:10:11;;;;;;;15.07;5.88;;;15.90;99.90;;;;;;5094934;27;20101;-34
2022/06/28 06:12:38;;;;;;;19.77;6.15;;;16.00;99.90;;;;;;5091892;28;20090;-34
2022/06/28 06:15:07;;;;;;;11.10;6.13;;;16.10;99.90;;;;;;5095052;28;20056;-34
2022/06/28 06:17:34;;;;;;;14.85;5.55;;;16.20;99.90;;;;;;5108405;28;20093;-34
2022/06/28 06:20:02;;;;;;;12.10;5.20;;;16.30;99.90;;;;;;5102716;28;20113;-35
2022/06/28 06:22:29;;;;;;;14.50;5.15;;;16.50;99.90;;;;;;5100069;28;20403;-35
2022/06/28 06:24:56;;;;;;;16.67;5.70;;;16.60;99.90;;;;;;5093704;28;20040;-35
2022/06/28 06:27:23;;;;;;;14.98;5.32;;;16.70;99.90;;;;;;5107206;28;20056;-35
2022/06/28 06:29:50;;;;;;;14.98;5.35;;;16.70;99.90;;;;;;5101494;28;20043;-33
2022/06/28 06:32:18;;;;;;;10.07;5.47;;;16.90;99.90;;;;;;5095879;28;20048;-34
2022/06/28 06:34:45;;;;;;;12.05;4.78;;;17.00;99.90;;;;;;5103947;28;20048;-34
2022/06/28 06:37:12;;;;;;;16.70;4.97;;;17.10;99.90;;;;;;5111113;28;20130;-34
2022/06/28 06:39:39;;;;;;;19.52;4.70;;;17.20;99.90;;;;;;5092750;28;20629;-34
2022/06/28 06:42:06;;;;;;;12.27;4.45;;;17.30;99.90;;;;;;5090687;28;20052;-34
2022/06/28 06:44:33;;;;;;;15.90;4.70;;;17.40;99.90;;;;;;5096315;28;20087;-35
2022/06/28 06:47:00;;;;;;;15.30;4.18;;;17.50;99.90;;;;;;5106859;28;20090;-35
2022/06/28 06:49:28;;;;;;;9.40;3.53;;;17.60;99.90;;;;;;5107010;28;20498;-35
2022/06/28 06:51:55;;;;;;;13.10;3.92;;;17.70;99.90;;;;;;5111847;28;20483;-34
2022/06/28 06:54:22;;;;;;;11.15;4.18;;;17.90;99.90;;;;;;5116188;28;20394;-35
2022/06/28 06:56:49;;;;;;;14.38;3.72;;;18.00;99.90;;;;;;5115017;28;20096;-35
2022/06/28 06:59:16;;;;;;;17.02;4.25;;;18.20;99.90;;;;;;5113257;28;20052;-35
2022/06/28 07:01:43;;;;;;;11.50;3.40;;;18.30;99.90;;;;;;5113881;28;20056;-34
2022/06/28 07:04:10;;;;;;;16.25;3.97;;;18.40;99.90;;;;;;5115774;28;20472;-35
2022/06/28 07:06:38;;;;;;;9.65;3.10;;;18.50;99.90;;;;;;5114038;28;20040;-35
2022/06/28 07:09:05;;;;;;;14.55;3.40;;;18.60;99.90;;;;;;5114887;28;20051;-35
2022/06/28 07:11:32;;;;;;;15.75;3.72;;;18.60;99.90;;;;;;5113784;28;20082;-35
2022/06/28 07:13:58;;;;;;;14.68;3.78;;;18.70;99.90;;;;;;5115641;28;20091;-35
2022/06/28 07:16:25;;;;;;;13.05;3.85;;;18.80;99.90;;;;;;5111801;28;20640;-33
2022/06/28 07:18:52;;;;;;;14.07;3.97;;;18.90;99.90;;;;;;5115423;28;20127;-33
2022/06/28 07:21:19;;;;;;;11.50;3.30;;;19.00;99.90;;;;;;5106939;28;20097;-33
2022/06/28 07:23:47;;;;;;;14.27;3.70;;;19.20;99.90;;;;;;5094741;27;20040;-33
2022/06/28 07:26:16;;;;;;;14.02;4.15;;;19.30;99.90;;;;;;5093962;28;20048;-33
2022/06/28 07:28:43;;;;;;;14.07;3.65;;;19.40;99.90;;;;;;5104906;28;20058;-33
2022/06/28 07:31:09;;;;;;;10.93;3.58;;;19.40;99.90;;;;;;5114174;28;20051;-33
2022/06/28 07:33:36;;;;;;;11.80;3.92;;;19.30;99.90;;;;;;5113833;28;20079;-33
2022/06/28 07:36:03;;;;;;;10.93;3.50;;;19.30;99.90;;;;;;5111221;28;20059;-34
2022/06/28 07:38:30;;;;;;;12.95;3.58;;;19.40;99.90;;;;;;5101686;27;20135;-34
2022/06/28 07:40:58;;;;;;;15.45;3.33;;;19.60;99.90;;;;;;5093768;28;20058;-34
2022/06/28 07:43:26;;;;;;;15.95;3.58;;;19.70;99.90;;;;;;5104006;28;20075;-34
2022/06/28 07:45:53;;;;;;;12.85;3.67;;;19.70;99.90;;;;;;5115175;28;20171;-34
2022/06/28 07:48:20;;;;;;;16.63;3.00;;;19.90;99.90;;;;;;5114204;28;20078;-34
2022/06/28 07:53:31;;;;;;;10.77;2.83;;;20.10;99.90;;;;;;5112513;27;20062;-33
2022/06/28 07:55:59;;;;;;;8.40;2.80;;;20.30;99.90;;;;;;5093599;28;20472;-34
2022/06/28 07:58:26;;;;;;;10.25;2.83;;;20.50;99.90;;;;;;5102737;28;20090;-34
2022/06/28 08:00:53;;;;;;;7.97;2.58;;;20.70;99.90;;;;;;5102817;28;20089;-34
2022/06/28 08:03:20;;;;;;;12.55;2.90;;;20.90;99.80;;;;;;5105450;28;20132;-34
2022/06/28 08:05:47;;;;;;;11.30;2.60;;;21.10;98.90;;;;;;5115046;28;20062;-35
2022/06/28 08:08:14;;;;;;;11.40;2.60;;;21.20;99.20;;;;;;5114780;28;20372;-34
2022/06/28 08:10:41;;;;;;;11.45;2.83;;;21.40;99.00;;;;;;5113277;28;20040;-34
2022/06/28 08:13:09;;;;;;;12.10;2.88;;;21.50;97.80;;;;;;5112743;28;20190;-34
2022/06/28 08:15:36;;;;;;;10.93;2.85;;;21.50;98.10;;;;;;5112772;28;20048;-35
2022/06/28 08:18:02;;;;;;;9.02;2.88;;;21.60;98.00;;;;;;5105247;28;20051;-34
2022/06/28 08:20:31;;;;;;;9.18;2.92;;;21.50;96.90;;;;;;5094604;28;20079;-34
2022/06/28 08:22:58;;;;;;;12.93;3.03;;;21.30;97.00;;;;;;5104621;28;20048;-35
2022/06/28 08:25:25;;;;;;;10.82;2.53;;;21.20;96.80;;;;;;5111647;28;20376;-35
2022/06/28 08:27:51;;;;;;;9.73;2.72;;;21.30;96.80;;;;;;5112220;28;20047;-34
2022/06/28 08:30:20;;;;;;;7.43;2.03;;;21.40;96.80;;;;;;5110666;28;20612;-35
2022/06/28 08:32:46;;;;;;;7.15;2.15;;;21.60;95.60;;;;;;5114154;27;20051;-35
2022/06/28 08:35:13;;;;;;;10.32;2.22;;;21.70;94.90;;;;;;5110956;27;20092;-35
2022/06/28 08:37:40;;;;;;;7.70;2.25;;;21.60;94.30;;;;;;5112598;28;20105;-35
2022/06/28 08:40:08;;;;;;;9.23;2.28;;;21.60;95.30;;;;;;5112231;28;20112;-35
2022/06/28 08:42:36;;;;;;;12.80;3.08;;;21.60;95.10;;;;;;5111055;28;20094;-35
2022/06/28 08:45:04;;;;;;;9.85;2.17;;;21.80;94.70;;;;;;5100057;28;20426;-35
2022/06/28 08:47:33;;;;;;;11.05;2.08;;;21.90;94.10;;;;;;5113983;28;20097;-34
2022/06/28 08:50:03;;;;;;;7.97;1.67;;;22.10;93.40;;;;;;5112545;28;20075;-34
2022/06/28 08:52:30;;;;;;;4.97;1.30;;;22.20;91.70;;;;;;5108968;28;20096;-35
2022/06/28 08:54:57;;;;;;;9.07;1.52;;;22.30;91.40;;;;;;5110645;28;20104;-34
2022/06/28 08:57:24;;;;;;;7.88;1.88;;;22.30;90.80;;;;;;5111854;28;20063;-34
2022/06/28 08:59:51;;;;;;;6.78;1.83;;;22.40;90.70;;;;;;5109737;28;20040;-34
2022/06/28 09:02:17;;;;;;;6.60;1.88;;;22.60;90.80;;;;;;5111847;28;20051;-34
2022/06/28 09:04:48;;;;;;;6.47;2.03;;;22.70;90.90;;;;;;5111724;28;20600;-34
2022/06/28 09:07:16;;;;;;;4.68;1.90;;;22.80;90.80;;;;;;5111712;28;20043;-34
2022/06/28 09:09:43;;;;;;;5.93;1.60;;;22.90;90.20;;;;;;5110432;28;20380;-35
2022/06/28 09:12:10;;;;;;;9.73;2.20;;;22.80;89.10;;;;;;5113291;28;20449;-35
2022/06/28 09:14:37;;;;;;;6.18;1.50;;;23.00;88.90;;;;;;5103708;28;20052;-35
2022/06/28 09:17:18;;;;;;;7.88;1.73;;;23.20;90.10;;;;;;5107273;28;20043;-35
2022/06/28 09:19:47;;;;;;;9.00;1.75;;;23.40;90.20;;;;;;5110543;28;20134;-35
2022/06/28 09:22:29;;;;;;;7.97;2.30;;;23.50;90.20;;;;;;5112114;28;20108;-35
2022/06/28 09:24:56;;;;;;;10.45;1.90;;;23.80;87.30;;;;;;5109790;27;20092;-35
2022/06/28 09:27:28;;;;;;;8.13;1.88;;;23.80;85.30;;;;;;5102871;28;20048;-36
2022/06/28 09:29:54;;;;;;;9.27;2.28;;;24.00;84.10;;;;;;5096997;28;20466;-35
2022/06/28 09:32:27;;;;;;;11.55;2.00;;;24.10;84.60;;;;;;5096364;28;20092;-36
2022/06/28 09:34:56;;;;;;;4.22;1.20;;;24.20;82.60;;;;;;5112822;28;20141;-35
2022/06/28 09:37:33;;;;;;;5.75;1.40;;;24.20;81.00;;;;;;5110701;28;20059;-35
2022/06/28 09:40:11;;;;;;;9.32;1.83;;;24.20;84.00;;;;;;5108055;28;20055;-35
2022/06/28 09:42:38;;;;;;;6.80;1.38;;;24.00;84.20;;;;;;5092469;28;20048;-36
2022/06/28 09:45:05;;;;;;;10.38;1.58;;;24.00;85.70;;;;;;5092358;27;20393;-35
2022/06/28 09:47:32;;;;;;;7.10;1.42;;;24.10;83.30;;;;;;5093159;28;20052;-35
2022/06/28 09:50:03;;;;;;;7.80;1.33;;;24.10;81.40;;;;;;5110257;28;20380;-35
2022/06/28 09:52:30;;;;;;;5.68;1.27;;;24.10;81.40;;;;;;5091469;28;20079;-36
2022/06/28 09:54:59;;;;;;;9.40;1.65;;;24.20;80.80;;;;;;5104193;28;20091;-35
2022/06/28 09:57:25;;;;;;;6.38;1.20;;;24.30;78.00;;;;;;5110017;28;20063;-35
2022/06/28 09:59:54;;;;;;;6.25;1.70;;;24.40;77.50;;;;;;5098326;28;20524;-36
2022/06/28 10:02:20;;;;;;;4.55;1.27;;;24.60;76.40;;;;;;5091704;28;20462;-36
2022/06/28 10:04:47;;;;;;;5.88;1.70;;;24.60;75.70;;;;;;5100160;28;20126;-36
2022/06/28 10:07:15;;;;;;;8.48;1.40;;;24.80;75.40;;;;;;5109854;28;20044;-35
2022/06/28 10:09:42;;;;;;;8.75;1.63;;;25.00;76.20;;;;;;5110817;28;20055;-36
2022/06/28 10:15:04;;;;;;;4.65;0.98;;;25.40;74.00;;;;;;5107780;28;20056;-36
2022/06/28 10:17:49;;;;;;;8.50;1.55;;;25.50;72.70;;;;;;5112048;28;20043;-36
2022/06/28 10:20:18;;;;;;;8.57;1.80;;;25.80;72.80;;;;;;5109859;28;20055;-36
2022/06/28 10:22:46;;;;;;;7.03;1.10;;;25.90;71.80;;;;;;5109237;28;20083;-35
2022/06/28 10:25:17;;;;;;;8.00;1.50;;;25.90;72.80;;;;;;5111995;28;20056;-36
2022/06/28 10:27:48;;;;;;;5.90;1.58;;;26.00;71.20;;;;;;5107590;28;20633;-36
2022/06/28 10:30:23;;;;;;;6.25;1.63;;;26.20;70.60;;;;;;5097779;28;20048;-36
2022/06/28 10:32:51;;;;;;;6.07;1.50;;;26.30;69.10;;;;;;5091925;28;20095;-36
2022/06/28 10:35:51;;;;;;;5.70;1.05;;;26.30;70.50;;;;;;5089789;28;20059;-36
2022/06/28 10:38:20;;;;;;;5.73;1.67;;;26.30;70.20;;;;;;5091225;28;20295;-36
2022/06/28 10:40:49;;;;;;;5.03;1.60;;;26.30;70.20;;;;;;5090323;28;20047;-36
2022/06/28 10:43:16;;;;;;;4.65;1.30;;;26.30;69.20;;;;;;5091921;28;20148;-36
2022/06/28 10:46:07;;;;;;;4.82;1.40;;;26.20;68.00;;;;;;5091728;28;20592;-36
2022/06/28 10:49:01;;;;;;;5.15;1.55;;;26.20;68.00;;;;;;5096943;28;20095;-35
2022/06/28 10:51:27;;;;;;;4.63;1.52;;;26.20;66.40;;;;;;5101621;28;20502;-36
2022/06/28 10:54:06;;;;;;;4.25;1.20;;;26.30;64.70;;;;;;5092575;28;20123;-36
2022/06/28 10:56:39;;;;;;;4.20;1.20;;;26.30;63.40;;;;;;5093741;28;20059;-36
2022/06/28 10:59:07;;;;;;;6.85;1.50;;;26.10;65.90;;;;;;5091356;28;20083;-36
2022/06/28 11:01:56;;;;;;;8.68;1.35;;;25.80;65.30;;;;;;5095551;28;20543;-36
2022/06/28 11:04:24;;;;;;;5.97;1.30;;;25.80;66.70;;;;;;5119549;28;20290;-35
2022/06/28 11:06:53;;;;;;;4.78;1.50;;;25.90;65.20;;;;;;5140105;27;20491;-36
2022/06/28 11:09:34;;;;;;;4.50;1.20;;;26.00;64.60;;;;;;5100106;28;20076;-36
2022/06/28 11:12:11;;;;;;;7.30;1.50;;;26.10;65.20;;;;;;5089493;28;20052;-34
2022/06/28 11:14:46;;;;;;;4.68;1.13;;;26.40;66.20;;;;;;5093173;28;20500;-35
2022/06/28 11:17:24;;;;;;;5.45;1.20;;;26.70;66.80;;;;;;5089736;28;20051;-35
2022/06/28 11:19:54;;;;;;;6.00;0.90;;;26.90;65.30;;;;;;5092921;28;20056;-35
2022/06/28 11:22:30;;;;;;;4.07;1.13;;;27.00;63.20;;;;;;5108790;28;20055;-35
2022/06/28 11:25:00;;;;;;;3.42;1.02;;;27.10;63.50;;;;;;5106088;28;20079;-35
2022/06/28 11:27:26;;;;;;;7.18;1.17;;;26.90;63.90;;;;;;5090205;28;20048;-34
2022/06/28 11:30:02;;;;;;;6.20;1.17;;;26.70;61.70;;;;;;5103801;28;20139;-34
2022/06/28 11:32:30;;;;;;;3.15;1.10;;;26.50;62.30;;;;;;5091090;28;20052;-34
2022/06/28 11:34:59;;;;;;;5.85;1.15;;;26.50;61.10;;;;;;5099979;28;20503;-34
2022/06/28 11:37:26;;;;;;;3.83;1.00;;;26.70;61.20;;;;;;5092401;28;20147;-35
2022/06/28 11:39:54;;;;;;;5.07;1.10;;;26.80;59.00;;;;;;5099063;28;20432;-35
2022/06/28 11:42:22;;;;;;;4.88;1.30;;;26.80;60.20;;;;;;5094803;28;20105;-35
2022/06/28 11:44:50;;;;;;;7.65;1.00;;;26.90;60.50;;;;;;5104921;28;20075;-35
2022/06/28 11:47:17;;;;;;;6.13;1.25;;;27.00;62.10;;;;;;5112229;28;20127;-35
2022/06/28 11:49:44;;;;;;;6.15;1.40;;;27.20;61.20;;;;;;5112028;28;20052;-35
2022/06/28 11:52:14;;;;;;;6.95;1.10;;;27.20;59.60;;;;;;5114914;28;20056;-36
2022/06/28 11:54:42;;;;;;;5.70;1.15;;;27.20;59.50;;;;;;5114072;28;20445;-35
2022/06/28 11:57:16;;;;;;;4.57;1.20;;;27.00;59.20;;;;;;5107939;28;20440;-35
2022/06/28 11:59:57;;;;;;;5.53;1.50;;;27.10;59.10;;;;;;5111013;28;20410;-36
2022/06/28 12:02:44;;;;;;;4.03;1.00;;;27.00;58.20;;;;;;5105040;28;20494;-35
2022/06/28 12:05:11;;;;;;;8.32;1.05;;;26.90;59.00;;;;;;5111599;28;20612;-35
2022/06/28 12:07:39;;;;;;;7.05;1.23;;;27.00;59.30;;;;;;5112747;28;20056;-35
2022/06/28 12:10:10;;;;;;;4.72;1.15;;;27.10;58.30;;;;;;5114465;28;20120;-35
2022/06/28 12:12:42;;;;;;;3.60;0.93;;;27.00;58.20;;;;;;5111257;28;20100;-35
2022/06/28 12:15:10;;;;;;;3.88;1.08;;;26.80;58.60;;;;;;5113290;28;20055;-35
2022/06/28 12:17:45;;;;;;;5.07;1.27;;;26.60;59.80;;;;;;5105342;28;20092;-35
2022/06/28 12:20:13;;;;;;;13.43;1.90;;;26.70;59.00;;;;;;5113559;28;20059;-35
2022/06/28 12:22:39;;;;;;;6.18;1.00;;;26.80;59.10;;;;;;5113181;28;20120;-35
2022/06/28 12:25:09;;;;;;;5.18;0.95;;;27.00;58.20;;;;;;5114337;28;20055;-35
2022/06/28 12:27:36;;;;;;;4.05;1.13;;;27.10;56.90;;;;;;5111634;28;20083;-35
2022/06/28 12:30:04;;;;;;;4.10;1.25;;;27.00;56.20;;;;;;5111233;28;20051;-35
2022/06/28 12:32:32;;;;;;;4.60;1.25;;;27.10;57.00;;;;;;5112378;28;20075;-35
2022/06/28 12:34:59;;;;;;;7.90;1.75;;;27.20;57.00;;;;;;5105367;28;20055;-35
2022/06/28 12:37:26;;;;;;;6.70;1.48;;;27.40;55.20;;;;;;5110321;27;20117;-36
2022/06/28 12:39:53;;;;;;;5.93;1.42;;;27.20;55.10;;;;;;5103566;28;20051;-35
2022/06/28 12:42:19;;;;;;;6.85;1.25;;;27.10;57.00;;;;;;5112548;28;20056;-36
2022/06/28 12:44:46;;;;;;;3.50;1.00;;;27.20;56.10;;;;;;5113400;28;20056;-35
2022/06/28 12:47:13;;;;;;;5.45;1.20;;;27.10;55.50;;;;;;5110766;28;20065;-35
2022/06/28 12:49:41;;;;;;;5.90;1.25;;;27.00;55.30;;;;;;5109733;27;20055;-35
2022/06/28 12:52:08;;;;;;;5.22;1.20;;;26.90;54.70;;;;;;5113090;28;20097;-35
2022/06/28 12:54:35;;;;;;;4.25;1.10;;;27.00;55.40;;;;;;5114534;28;20483;-35
2022/06/28 12:57:02;;;;;;;4.88;1.50;;;27.10;55.80;;;;;;5107699;28;20079;-35
2022/06/28 12:59:28;;;;;;;3.25;1.00;;;27.20;56.20;;;;;;5103693;28;20079;-36